Címlap Időjárás Ferihegy, Budapest Airport időjárás előrejelzés – METAR, TAF BUD/LHBP

Időjárás Ferihegy, Budapest Airport időjárás előrejelzés – METAR, TAF BUD/LHBP

Aktuális szöveges időjárásjelentés / METAR BUD/LHBP, és 24 órás szöveges időjárás-előrejelzés / TAF BUD/LHBP Budapest Liszt Ferenc Nemzetközi Repülőtér

Available data for LHBP from the past 6 hours
Metar
LHBP 180730Z 01009KT 9999 FEW033 BKN050 23/16 Q1014 BECMG 03011KT

07:30 UTC

Wind: 10° 9kt

Visibility: 9999 m

Sky: FEW 3300 ft

Temp: 23 deg C / 73.4 deg F

Dewpoint: 16 deg C / 60.8 deg F

Pressure: 1014 hPa

TAF
TAF LHBP 180515Z 1806/1906 VRB03KT CAVOK BECMG 1807/1810 03012KT TEMPO 1812/1822 04015G25KT -TSRA SHRA SCT045CB BKN060 BECMG 1822/1824 35005KT

Szélirány és erősség Ferihegy és környéke

Európa műholdkép


6 napos időjárás előrejelzés – Budapest Ferihegy Airport


Data is taken from the National Weather Service at NOAA. Satelite image by AustroControl & Meteo-Mc. Only for spotters, do not use for real flight!

A METAR és a TAF adatok a National Weather Service adatbázisából származnak. Az oldalon közölt adatok tájékoztató jellegűek, az oldal üzemeltetője nem vállal felelősséget ezek esetleges pontatlanságáért. Ne használd valós repüléshez!

Légitársaságok, légi utazás hírei